Time;durP1;ratioP1;P1;durP2;ratioP2;P2;SDS_P1;SDS_P2;PMS_P1;PMS_P2;Temp;Humidity;BMP_temperature;BMP_pressure;BME280_temperature;BME280_humidity;BME280_pressure;Samples;Min_cycle;Max_cycle;Signal;HPM_P1;HPM_P2
2022/03/20 00:00:34;;;;;;;34.07;20.70;;;;;;;4.97;53.25;99605.22;5010509;28;20714;-51
2022/03/20 00:03:05;;;;;;;41.13;22.87;;;;;;;5.00;52.18;99611.97;5010785;28;20195;-51
2022/03/20 00:05:34;;;;;;;37.27;21.53;;;;;;;5.10;52.44;99600.16;5001241;28;20208;-51
2022/03/20 00:08:01;;;;;;;40.37;21.00;;;;;;;4.98;52.86;99606.88;4991062;28;20182;-52
2022/03/20 00:10:28;;;;;;;40.00;22.13;;;;;;;4.80;53.94;99597.63;4991270;28;20217;-48
2022/03/20 00:12:55;;;;;;;40.20;21.90;;;;;;;4.76;53.95;99596.97;4991043;28;20192;-50
2022/03/20 00:15:23;;;;;;;35.73;20.40;;;;;;;5.02;53.08;99599.78;4990759;28;20585;-52
2022/03/20 00:17:50;;;;;;;41.23;23.10;;;;;;;5.01;51.85;99596.34;4991056;28;20209;-48
2022/03/20 00:20:17;;;;;;;36.70;21.53;;;;;;;5.07;52.58;99596.91;4990624;28;20353;-51
2022/03/20 00:22:44;;;;;;;35.27;21.53;;;;;;;5.14;52.44;99582.69;4991282;28;20189;-51
2022/03/20 00:25:11;;;;;;;42.43;21.97;;;;;;;5.10;52.38;99584.63;4998796;28;20196;-51
2022/03/20 00:27:39;;;;;;;43.23;24.10;;;;;;;5.08;52.91;99581.31;5010563;28;20189;-48
2022/03/20 00:30:07;;;;;;;34.63;22.20;;;;;;;5.24;51.28;99582.97;5008402;28;20221;-48
2022/03/20 00:32:35;;;;;;;36.80;22.00;;;;;;;5.21;51.73;99583.97;5010413;28;20289;-50
2022/03/20 00:35:02;;;;;;;46.57;24.73;;;;;;;5.29;52.12;99583.53;5005430;28;20209;-51
2022/03/20 00:37:29;;;;;;;46.73;25.97;;;;;;;5.22;51.52;99587.41;4990571;28;20220;-48
2022/03/20 00:39:56;;;;;;;40.97;22.13;;;;;;;5.26;51.58;99578.53;4989957;28;20205;-49
2022/03/20 00:42:23;;;;;;;44.40;23.27;;;;;;;5.47;50.54;99577.19;4990953;28;20190;-49
2022/03/20 00:44:50;;;;;;;40.57;23.00;;;;;;;5.51;50.77;99580.44;4989373;28;20190;-51
2022/03/20 00:47:17;;;;;;;39.17;21.40;;;;;;;5.55;50.87;99576.75;4990791;28;20286;-51
2022/03/20 00:49:45;;;;;;;41.10;22.77;;;;;;;5.61;49.80;99578.09;4988832;28;20248;-49
2022/03/20 00:52:12;;;;;;;42.00;23.50;;;;;;;5.73;49.71;99577.34;5000887;28;20201;-48
2022/03/20 00:54:39;;;;;;;40.90;22.30;;;;;;;5.70;49.55;99577.53;5008809;28;20193;-48
2022/03/20 00:57:06;;;;;;;35.27;21.73;;;;;;;5.68;50.01;99563.84;5009679;28;20266;-49
2022/03/20 00:59:32;;;;;;;41.83;22.50;;;;;;;5.69;49.83;99560.34;5009563;28;20208;-48
2022/03/20 01:01:59;;;;;;;40.10;23.77;;;;;;;5.79;50.27;99552.84;5009638;28;20663;-48
2022/03/20 01:04:26;;;;;;;41.27;22.40;;;;;;;5.83;50.14;99559.44;5009454;28;20633;-49
2022/03/20 01:06:58;;;;;;;44.70;25.27;;;;;;;5.82;49.69;99563.00;4990338;28;20703;-49
2022/03/20 01:09:25;;;;;;;42.40;25.00;;;;;;;5.83;50.27;99561.22;4990083;28;20196;-49
2022/03/20 01:11:52;;;;;;;38.03;23.23;;;;;;;5.74;51.15;99560.88;4989642;28;20287;-49
2022/03/20 01:14:19;;;;;;;42.80;23.30;;;;;;;5.72;50.66;99557.56;4989910;28;20193;-48
2022/03/20 01:16:46;;;;;;;42.60;21.13;;;;;;;5.64;51.46;99556.38;5004849;28;20295;-51
2022/03/20 01:19:13;;;;;;;34.90;19.83;;;;;;;5.66;50.84;99557.94;4990320;28;20194;-50
2022/03/20 01:21:41;;;;;;;37.30;21.90;;;;;;;5.73;50.20;99558.41;4988907;28;20233;-48
2022/03/20 01:24:09;;;;;;;40.83;21.63;;;;;;;5.75;50.56;99572.09;4991351;28;20197;-49
2022/03/20 01:26:37;;;;;;;37.43;21.33;;;;;;;5.74;50.78;99573.81;5009166;28;20656;-51
2022/03/20 01:29:04;;;;;;;37.33;22.23;;;;;;;5.72;50.88;99575.69;5009679;28;20185;-49
2022/03/20 01:31:31;;;;;;;40.07;21.47;;;;;;;5.83;49.80;99576.78;5006490;28;20224;-49
2022/03/20 01:33:59;;;;;;;40.63;23.37;;;;;;;5.89;48.95;99591.94;5007933;28;20192;-49
2022/03/20 01:36:26;;;;;;;37.60;22.40;;;;;;;5.88;49.39;99592.84;4991841;28;20280;-51
2022/03/20 01:38:53;;;;;;;35.13;20.83;;;;;;;5.86;49.63;99592.94;4988617;28;20224;-51
2022/03/20 01:41:21;;;;;;;36.27;20.90;;;;;;;5.75;54.64;99580.66;4988710;28;20265;-50
2022/03/20 01:43:52;;;;;;;37.90;21.73;;;;;;;5.25;56.52;99579.47;4989477;28;20736;-51
2022/03/20 01:46:19;;;;;;;36.97;21.67;;;;;;;5.10;58.28;99581.22;4988926;28;20278;-51
2022/03/20 01:48:45;;;;;;;37.53;21.37;;;;;;;4.98;57.75;99569.84;4989526;28;20190;-48
2022/03/20 01:51:14;;;;;;;37.97;21.23;;;;;;;4.84;59.45;99563.72;4989350;28;20208;-48
2022/03/20 01:53:41;;;;;;;38.17;20.80;;;;;;;4.73;59.54;99553.19;5004692;28;20193;-51
2022/03/20 01:56:08;;;;;;;41.97;22.70;;;;;;;4.68;60.79;99542.28;5008741;28;20195;-52
2022/03/20 01:58:36;;;;;;;34.83;21.63;;;;;;;4.72;57.77;99541.19;5008392;28;20212;-53
2022/03/20 02:01:04;;;;;;;44.57;21.77;;;;;;;4.80;55.38;99531.22;5008434;28;20210;-49
2022/03/20 02:03:31;;;;;;;35.23;20.43;;;;;;;4.91;56.26;99529.75;5008769;28;20203;-52
2022/03/20 02:05:59;;;;;;;37.27;21.37;;;;;;;5.15;52.71;99524.81;4996550;28;20232;-48
2022/03/20 02:08:27;;;;;;;38.07;21.50;;;;;;;5.28;51.47;99535.28;5004122;28;20220;-49
2022/03/20 02:10:55;;;;;;;39.53;21.77;;;;;;;5.36;52.51;99535.59;4989238;28;20209;-49
2022/03/20 02:13:22;;;;;;;36.03;21.47;;;;;;;5.49;51.77;99550.38;4989302;28;20209;-52
2022/03/20 02:15:51;;;;;;;41.30;21.67;;;;;;;5.56;52.05;99547.34;4989173;28;20197;-49
2022/03/20 02:18:19;;;;;;;38.17;22.60;;;;;;;5.65;50.98;99558.03;4988909;28;20259;-52
2022/03/20 02:20:47;;;;;;;37.73;21.67;;;;;;;5.67;50.47;99553.59;4988862;28;20244;-53
2022/03/20 02:23:17;;;;;;;37.43;23.27;;;;;;;5.79;50.22;99552.84;4989156;28;20189;-50
2022/03/20 02:25:47;;;;;;;38.70;22.90;;;;;;;5.80;50.22;99557.09;5003347;28;20272;-48
2022/03/20 02:28:15;;;;;;;39.83;22.60;;;;;;;5.83;50.81;99540.50;5008919;28;20264;-49
2022/03/20 02:30:42;;;;;;;39.53;22.03;;;;;;;5.84;50.99;99537.78;5007089;28;20299;-52
2022/03/20 02:33:09;;;;;;;37.33;21.50;;;;;;;5.89;51.58;99540.09;5008727;28;20588;-52
2022/03/20 02:35:39;;;;;;;36.63;21.33;;;;;;;5.84;52.68;99545.56;4999161;28;20225;-50
2022/03/20 02:38:10;;;;;;;37.97;22.17;;;;;;;5.83;50.43;99538.72;4989093;28;20299;-52
2022/03/20 02:40:38;;;;;;;33.47;21.50;;;;;;;5.83;51.23;99530.13;4988243;28;20209;-52
2022/03/20 02:43:07;;;;;;;37.20;21.83;;;;;;;5.83;50.72;99527.53;4989666;28;20245;-51
2022/03/20 02:45:35;;;;;;;35.30;21.17;;;;;;;5.84;51.23;99532.63;4988120;28;20189;-51
2022/03/20 02:48:05;;;;;;;38.03;22.13;;;;;;;5.88;50.04;99525.50;4989106;28;20221;-53
2022/03/20 02:50:33;;;;;;;40.53;21.50;;;;;;;5.87;50.31;99540.19;4988301;28;20552;-52
2022/03/20 02:53:02;;;;;;;37.83;22.93;;;;;;;5.94;48.94;99534.63;4991832;28;20188;-52
2022/03/20 02:55:31;;;;;;;35.80;21.40;;;;;;;5.97;48.63;99532.66;5006823;28;20192;-49
2022/03/20 02:58:01;;;;;;;40.80;22.20;;;;;;;5.97;49.41;99526.66;5008257;28;20209;-48
2022/03/20 03:00:30;;;;;;;39.13;21.80;;;;;;;5.98;49.29;99518.78;5007617;28;20219;-48
2022/03/20 03:02:59;;;;;;;35.60;21.07;;;;;;;5.95;49.25;99520.72;5008616;28;20189;-49
2022/03/20 03:05:31;;;;;;;43.03;22.43;;;;;;;5.97;49.36;99514.53;5000436;28;20209;-50
2022/03/20 03:10:59;;;;;;;35.97;20.70;;;;;;;5.91;49.60;99512.34;5008206;28;20208;-53
2022/03/20 03:13:29;;;;;;;39.20;22.70;;;;;;;5.86;49.66;99516.97;5009325;28;20200;-50
2022/03/20 03:15:59;;;;;;;36.93;21.47;;;;;;;5.84;50.97;99514.47;5011729;28;20188;-52
2022/03/20 03:18:26;;;;;;;35.63;21.43;;;;;;;5.89;50.39;99511.59;5011149;28;20204;-50
2022/03/20 03:20:57;;;;;;;40.57;23.57;;;;;;;5.89;50.48;99512.41;5011141;28;20205;-52
2022/03/20 03:23:25;;;;;;;41.70;23.73;;;;;;;5.96;50.50;99509.44;5010870;28;20192;-51
2022/03/20 03:25:58;;;;;;;40.77;22.40;;;;;;;5.95;49.83;99510.38;5008426;28;20275;-53
2022/03/20 03:28:33;;;;;;;40.23;23.33;;;;;;;5.97;49.77;99504.16;5010080;28;20215;-51
2022/03/20 03:31:04;;;;;;;42.87;23.83;;;;;;;5.97;49.86;99511.09;5001027;28;20201;-51
2022/03/20 03:33:33;;;;;;;40.10;22.53;;;;;;;5.98;49.41;99518.78;5000061;28;20187;-50
2022/03/20 03:36:01;;;;;;;40.13;22.37;;;;;;;5.91;50.00;99528.69;5015795;28;20676;-50
2022/03/20 03:38:31;;;;;;;39.33;21.97;;;;;;;5.91;50.17;99533.88;5000235;28;20205;-50
2022/03/20 03:40:58;;;;;;;42.53;23.33;;;;;;;5.88;50.48;99531.50;5023378;28;20220;-52
2022/03/20 03:43:26;;;;;;;41.97;23.40;;;;;;;5.94;50.52;99532.03;5011338;28;20272;-48
2022/03/20 03:45:53;;;;;;;42.63;23.40;;;;;;;5.97;50.11;99540.44;5010263;28;20184;-48
2022/03/20 03:48:22;;;;;;;39.97;23.17;;;;;;;5.90;51.90;99534.00;5011270;28;20193;-49
2022/03/20 03:50:52;;;;;;;36.07;22.67;;;;;;;5.70;55.81;99527.50;5008858;28;20220;-50
2022/03/20 03:53:19;;;;;;;39.77;23.23;;;;;;;5.32;56.87;99524.63;5011433;28;20177;-50
2022/03/20 03:55:46;;;;;;;42.03;22.93;;;;;;;5.35;56.64;99518.41;5005871;28;20247;-52
2022/03/20 03:58:13;;;;;;;37.90;22.63;;;;;;;5.15;58.95;99519.66;5009955;28;20208;-50
2022/03/20 04:00:41;;;;;;;39.53;23.23;;;;;;;4.87;61.93;99518.72;5008183;28;20695;-51
2022/03/20 04:03:08;;;;;;;43.70;24.03;;;;;;;4.60;62.03;99524.63;5007950;28;20203;-50
2022/03/20 04:05:36;;;;;;;33.97;21.60;;;;;;;4.34;63.10;99518.38;5009817;28;20196;-47
2022/03/20 04:08:06;;;;;;;43.40;22.77;;;;;;;4.12;62.88;99527.41;5010955;28;20188;-50
2022/03/20 04:10:33;;;;;;;42.47;22.53;;;;;;;3.89;64.40;99519.19;5010371;28;20247;-49
2022/03/20 04:13:00;;;;;;;46.17;23.60;;;;;;;3.67;65.38;99533.28;5010653;28;20199;-47
2022/03/20 04:15:26;;;;;;;37.93;22.87;;;;;;;3.50;66.50;99533.38;5009897;28;20185;-50
2022/03/20 04:17:54;;;;;;;40.13;23.23;;;;;;;3.34;66.34;99541.13;5010523;28;20201;-50
2022/03/20 04:20:22;;;;;;;40.77;23.13;;;;;;;3.28;66.54;99544.84;5009905;28;20208;-50
2022/03/20 04:25:31;;;;;;;43.20;24.10;;;;;;;3.05;70.26;99570.13;4976477;28;20216;-50
2022/03/20 04:27:58;;;;;;;40.10;24.63;;;;;;;2.93;71.70;99563.00;5009922;28;20278;-51
2022/03/20 04:30:28;;;;;;;46.43;24.53;;;;;;;2.85;71.60;99572.88;5009224;28;20692;-50
2022/03/20 04:32:56;;;;;;;44.20;23.77;;;;;;;2.66;71.66;99564.31;5010050;28;20216;-47
2022/03/20 04:35:24;;;;;;;42.90;23.37;;;;;;;2.58;71.57;99568.19;5010219;28;20667;-52
2022/03/20 04:37:54;;;;;;;40.60;23.40;;;;;;;2.45;72.21;99571.38;5009799;28;20756;-48
2022/03/20 04:40:20;;;;;;;47.83;25.07;;;;;;;2.30;72.90;99572.13;5009294;28;20212;-48
2022/03/20 04:42:49;;;;;;;43.03;24.43;;;;;;;2.25;73.71;99581.81;5009924;28;20275;-48
2022/03/20 04:45:17;;;;;;;45.00;23.53;;;;;;;2.20;73.76;99576.91;5009883;28;20261;-48
2022/03/20 04:58:59;;;;;;;39.30;22.83;;;;;;;1.81;75.46;99555.56;5009766;28;20265;-47
2022/03/20 05:01:26;;;;;;;42.73;23.47;;;;;;;1.76;76.30;99549.78;5009486;28;20210;-48
2022/03/20 05:03:53;;;;;;;39.33;22.43;;;;;;;1.79;76.00;99549.66;5009554;28;20228;-50
2022/03/20 05:06:20;;;;;;;40.77;21.97;;;;;;;1.79;75.68;99561.66;5009517;28;20194;-50
2022/03/20 05:08:48;;;;;;;42.17;23.13;;;;;;;1.76;75.50;99573.78;5009883;28;20640;-51
2022/03/20 05:14:00;;;;;;;40.77;23.03;;;;;;;1.81;75.46;99601.03;5009478;28;20184;-51
2022/03/20 05:16:27;;;;;;;45.00;24.03;;;;;;;1.81;76.29;99595.91;5009615;28;20243;-50
2022/03/20 05:18:53;;;;;;;43.50;21.93;;;;;;;1.89;75.97;99599.81;5009261;28;20889;-50
2022/03/20 05:21:20;;;;;;;43.83;23.47;;;;;;;1.92;76.01;99598.81;5009064;28;20721;-50
2022/03/20 05:23:48;;;;;;;45.93;26.13;;;;;;;2.04;76.25;99587.13;5008031;28;20654;-51
2022/03/20 05:26:15;;;;;;;45.53;25.33;;;;;;;2.10;76.21;99586.81;4989152;28;20247;-48
2022/03/20 05:28:42;;;;;;;44.00;23.67;;;;;;;2.14;75.73;99577.19;4989254;28;20650;-50
2022/03/20 05:31:11;;;;;;;44.70;24.67;;;;;;;2.16;75.84;99576.19;4989414;28;20244;-48
2022/03/20 05:33:38;;;;;;;46.50;25.30;;;;;;;2.27;76.16;99574.84;4989443;28;20249;-49
2022/03/20 05:36:05;;;;;;;45.67;24.67;;;;;;;2.38;76.27;99582.06;4988868;28;20238;-47
2022/03/20 05:38:32;;;;;;;43.67;24.53;;;;;;;2.46;75.60;99582.53;4988810;28;20259;-47
2022/03/20 05:43:44;;;;;;;43.60;25.63;;;;;;;2.58;76.19;99586.25;4989452;28;20189;-49
2022/03/20 05:46:11;;;;;;;45.63;25.03;;;;;;;2.70;75.89;99603.69;4989397;28;20192;-48
2022/03/20 05:48:38;;;;;;;44.60;24.13;;;;;;;2.75;75.71;99606.00;4989098;28;20185;-49
2022/03/20 05:51:05;;;;;;;41.30;24.13;;;;;;;2.77;76.17;99605.03;4989017;28;20253;-48
2022/03/20 05:53:32;;;;;;;44.67;25.00;;;;;;;2.82;75.67;99607.38;4989250;28;20189;-50
2022/03/20 05:58:44;;;;;;;43.27;22.60;;;;;;;2.98;74.80;99610.03;5005527;28;20206;-47
2022/03/20 06:01:11;;;;;;;40.63;22.20;;;;;;;3.03;75.40;99623.53;5008296;28;20603;-48
2022/03/20 06:03:37;;;;;;;39.20;22.47;;;;;;;3.12;75.78;99623.97;5009028;28;20204;-49
2022/03/20 06:06:07;;;;;;;41.63;22.70;;;;;;;3.19;75.81;99613.25;5007941;28;20192;-49
2022/03/20 06:08:35;;;;;;;41.57;23.10;;;;;;;3.24;75.93;99638.81;5008855;28;20192;-50
2022/03/20 06:11:02;;;;;;;43.13;24.30;;;;;;;3.29;76.13;99649.72;5008150;28;20629;-52
2022/03/20 06:13:31;;;;;;;44.10;25.53;;;;;;;3.38;75.43;99643.28;5007801;28;20739;-48
2022/03/20 06:15:59;;;;;;;40.10;24.63;;;;;;;3.42;75.13;99638.78;5008497;28;20180;-50
2022/03/20 06:18:27;;;;;;;58.43;31.17;;;;;;;3.47;75.79;99636.78;5008583;28;20231;-48
2022/03/20 06:20:57;;;;;;;46.60;26.23;;;;;;;3.50;77.93;99636.63;5008071;28;20204;-50
2022/03/20 06:23:24;;;;;;;47.70;29.37;;;;;;;3.53;76.94;99652.81;5009199;28;20249;-49
2022/03/20 06:25:51;;;;;;;42.60;25.20;;;;;;;3.64;75.50;99659.97;4991344;28;20201;-52
2022/03/20 06:28:19;;;;;;;45.28;26.88;;;;;;;3.66;77.02;99657.31;4989405;28;20634;-52
2022/03/20 06:30:46;;;;;;;49.37;28.13;;;;;;;3.77;78.98;99664.47;4988328;28;20726;-48
2022/03/20 06:33:15;;;;;;;53.77;30.73;;;;;;;3.87;80.39;99672.56;4987644;28;20215;-47
2022/03/20 06:35:42;;;;;;;56.83;32.17;;;;;;;3.93;80.40;99687.75;4988679;28;20214;-48
2022/03/20 06:38:09;;;;;;;54.07;31.43;;;;;;;4.01;81.01;99703.66;4988919;28;20264;-51
2022/03/20 06:40:36;;;;;;;53.20;31.33;;;;;;;3.99;82.15;99695.16;4988418;28;20224;-49
2022/03/20 06:43:03;;;;;;;49.20;28.23;;;;;;;3.99;84.58;99677.94;4988877;28;20421;-51
2022/03/20 06:45:29;;;;;;;46.27;25.63;;;;;;;4.06;85.35;99664.69;4988850;28;20185;-47
2022/03/20 06:47:56;;;;;;;63.07;36.17;;;;;;;4.26;85.81;99658.41;4991006;28;20191;-49
2022/03/20 06:50:24;;;;;;;50.60;28.60;;;;;;;4.48;87.08;99660.63;4992658;28;20215;-51
2022/03/20 06:52:51;;;;;;;55.77;29.70;;;;;;;4.60;85.37;99651.34;4992493;28;20255;-48
2022/03/20 06:55:18;;;;;;;52.20;29.43;;;;;;;4.77;85.65;99660.72;4991985;28;20769;-47
2022/03/20 06:57:47;;;;;;;51.97;29.80;;;;;;;4.78;86.77;99664.13;5000376;28;20193;-48
2022/03/20 07:00:16;;;;;;;54.27;30.17;;;;;;;4.84;88.25;99662.03;5011091;28;20303;-50
2022/03/20 07:02:55;;;;;;;48.80;29.90;;;;;;;4.88;87.47;99665.25;5012003;28;20204;-47
2022/03/20 07:05:23;;;;;;;53.37;30.03;;;;;;;4.90;88.27;99663.44;5011833;28;20188;-47
2022/03/20 07:07:51;;;;;;;53.70;30.33;;;;;;;4.96;90.47;99672.59;5011315;28;20664;-47
2022/03/20 07:10:21;;;;;;;57.93;32.70;;;;;;;5.10;93.53;99679.56;5011146;28;20248;-47
2022/03/20 07:12:49;;;;;;;61.80;32.27;;;;;;;5.25;94.71;99683.84;5011935;28;20189;-48
2022/03/20 07:15:17;;;;;;;61.17;32.17;;;;;;;5.39;95.84;99677.81;5011475;28;20185;-48
2022/03/20 07:17:47;;;;;;;61.90;34.53;;;;;;;5.58;98.11;99684.50;5011676;28;20192;-50
2022/03/20 07:20:16;;;;;;;62.43;33.57;;;;;;;5.76;98.61;99691.16;5011018;28;20611;-49
2022/03/20 07:22:48;;;;;;;67.53;33.60;;;;;;;5.90;98.01;99676.53;5011844;28;20196;-48
2022/03/20 07:30:43;;;;;;;60.33;33.47;;;;;;;6.48;99.22;99691.94;4991183;28;20217;-48
2022/03/20 07:33:11;;;;;;;64.67;35.67;;;;;;;6.66;99.42;99689.94;4991486;28;20198;-48
2022/03/20 07:35:38;;;;;;;56.13;31.70;;;;;;;6.79;96.56;99696.00;5006781;28;20217;-48
2022/03/20 07:38:06;;;;;;;45.00;27.90;;;;;;;6.68;85.83;99702.81;4991778;28;20210;-50
2022/03/20 07:40:33;;;;;;;48.97;29.07;;;;;;;6.68;85.09;99713.19;4991358;28;20223;-48
2022/03/20 07:43:00;;;;;;;42.40;26.80;;;;;;;6.59;77.49;99719.81;4990618;28;20190;-47
2022/03/20 07:45:27;;;;;;;45.60;27.70;;;;;;;6.17;75.57;99717.25;4990754;28;20191;-47
2022/03/20 07:47:54;;;;;;;51.23;33.73;;;;;;;5.65;79.39;99727.22;4991531;28;20550;-50
2022/03/20 07:50:21;;;;;;;57.10;38.80;;;;;;;5.49;78.72;99726.47;4991154;28;20221;-46
2022/03/20 07:52:47;;;;;;;44.57;27.03;;;;;;;5.52;78.38;99716.78;4991747;28;20221;-48
2022/03/20 07:55:17;;;;;;;48.20;28.23;;;;;;;5.79;79.86;99716.06;4991571;28;20197;-50
2022/03/20 07:57:44;;;;;;;45.60;26.77;;;;;;;5.88;74.28;99712.88;4991796;28;20190;-47
2022/03/20 08:00:12;;;;;;;46.00;24.80;;;;;;;6.20;74.76;99706.69;5008224;28;20717;-48
2022/03/20 08:02:39;;;;;;;41.63;25.80;;;;;;;6.54;73.44;99720.09;5010736;28;20231;-49
2022/03/20 08:05:06;;;;;;;43.93;25.80;;;;;;;6.87;69.82;99725.81;5010971;28;20190;-49
2022/03/20 08:07:36;;;;;;;44.80;26.00;;;;;;;7.01;69.92;99735.28;5010364;28;20185;-47
2022/03/20 08:10:06;;;;;;;39.57;24.23;;;;;;;7.14;69.83;99746.53;5010278;28;20287;-48
2022/03/20 08:12:34;;;;;;;49.60;27.10;;;;;;;7.19;69.65;99760.06;5010827;28;20183;-49
2022/03/20 08:15:02;;;;;;;46.13;26.93;;;;;;;7.03;72.11;99773.19;5010431;28;20210;-48
2022/03/20 08:17:29;;;;;;;43.60;27.13;;;;;;;7.03;72.28;99800.94;5010438;28;20222;-49
2022/03/20 08:19:57;;;;;;;35.53;22.83;;;;;;;6.29;76.10;99807.25;5010462;28;20216;-47
2022/03/20 08:22:25;;;;;;;44.00;27.10;;;;;;;5.82;78.38;99806.56;5010041;28;20192;-47
2022/03/20 08:24:52;;;;;;;48.53;28.13;;;;;;;5.76;77.65;99812.91;5002938;28;20605;-51
2022/03/20 08:27:20;;;;;;;42.93;23.30;;;;;;;5.61;79.12;99814.66;4990695;28;20193;-47
2022/03/20 08:29:48;;;;;;;45.53;28.33;;;;;;;5.50;81.20;99817.03;4990417;28;20188;-50
2022/03/20 08:32:15;;;;;;;49.03;29.27;;;;;;;5.56;83.10;99823.59;4990847;28;20289;-47
2022/03/20 08:34:42;;;;;;;50.73;28.50;;;;;;;5.37;84.46;99816.91;4990335;28;20201;-51
2022/03/20 08:37:09;;;;;;;50.87;28.47;;;;;;;5.58;82.05;99816.59;4991134;28;20217;-48
2022/03/20 08:39:36;;;;;;;50.63;29.10;;;;;;;5.81;81.41;99810.06;4989055;28;20608;-47
2022/03/20 08:42:03;;;;;;;54.83;31.53;;;;;;;5.92;81.56;99812.00;4990637;28;20282;-48
2022/03/20 08:44:32;;;;;;;48.23;27.83;;;;;;;5.97;81.85;99812.56;4988788;28;20212;-52
2022/03/20 08:47:00;;;;;;;56.73;35.87;;;;;;;5.97;83.63;99809.13;4990758;28;20244;-47
2022/03/20 08:49:27;;;;;;;50.97;31.93;;;;;;;6.10;84.39;99810.09;4990177;28;20473;-49
2022/03/20 08:51:54;;;;;;;50.93;30.87;;;;;;;6.26;84.76;99819.53;4990212;28;20209;-48
2022/03/20 08:54:20;;;;;;;48.90;29.27;;;;;;;6.32;83.65;99814.84;4988320;28;20204;-49
2022/03/20 08:56:48;;;;;;;67.03;39.80;;;;;;;6.42;84.51;99816.81;4989310;28;20685;-51
2022/03/20 08:59:14;;;;;;;51.03;32.50;;;;;;;6.53;83.89;99814.41;4994160;28;20209;-47
2022/03/20 09:01:41;;;;;;;55.07;31.93;;;;;;;6.52;83.83;99814.50;5008374;28;20223;-49
2022/03/20 09:04:10;;;;;;;51.60;30.37;;;;;;;6.65;84.48;99818.00;5009251;28;20846;-50
2022/03/20 09:06:37;;;;;;;51.63;31.87;;;;;;;6.80;84.06;99816.19;5010017;28;20201;-49
2022/03/20 09:09:04;;;;;;;50.27;32.00;;;;;;;6.97;83.90;99822.91;5009244;28;20206;-50
2022/03/20 09:11:31;;;;;;;54.87;35.33;;;;;;;7.08;84.47;99817.88;5008485;28;20584;-52
2022/03/20 09:13:57;;;;;;;51.33;31.73;;;;;;;7.11;83.42;99826.38;5009113;28;20691;-49
2022/03/20 09:19:11;;;;;;;50.00;31.60;;;;;;;7.18;83.93;99823.31;5009638;28;20186;-52
2022/03/20 09:21:39;;;;;;;51.60;32.33;;;;;;;7.25;83.78;99821.13;5008935;28;20225;-52
2022/03/20 09:24:07;;;;;;;73.13;45.23;;;;;;;7.41;85.13;99813.19;5008200;28;20179;-52
2022/03/20 09:26:34;;;;;;;59.30;34.57;;;;;;;7.62;83.23;99813.53;4989992;28;20288;-52
2022/03/20 09:29:02;;;;;;;134.10;67.50;;;;;;;7.95;83.91;99816.53;4990060;28;20244;-50
2022/03/20 09:31:31;;;;;;;86.10;46.97;;;;;;;8.15;82.79;99819.56;4989260;28;20575;-50
2022/03/20 09:33:58;;;;;;;89.60;49.30;;;;;;;8.65;83.47;99819.59;4989443;28;20190;-50
2022/03/20 09:36:26;;;;;;;54.97;33.13;;;;;;;9.16;79.74;99815.94;4989130;28;20287;-48
2022/03/20 09:38:53;;;;;;;44.43;27.97;;;;;;;9.57;76.96;99813.81;4989828;28;20612;-52
2022/03/20 09:41:23;;;;;;;31.17;18.70;;;;;;;10.01;75.68;99803.56;4988751;28;20224;-53
2022/03/20 09:43:50;;;;;;;37.23;17.47;;;;;;;10.34;70.69;99794.06;4990039;28;20277;-50
2022/03/20 09:46:22;;;;;;;37.07;17.13;;;;;;;10.46;69.66;99794.88;4987720;28;20198;-50
2022/03/20 09:48:48;;;;;;;27.97;15.90;;;;;;;10.61;68.19;99798.91;4989539;28;20302;-51
2022/03/20 09:51:15;;;;;;;28.80;16.17;;;;;;;10.49;68.68;99794.66;4988918;28;20351;-48
2022/03/20 09:53:43;;;;;;;26.60;15.97;;;;;;;10.58;68.01;99793.91;4989723;28;20677;-49
2022/03/20 09:56:13;;;;;;;39.07;23.07;;;;;;;10.49;71.58;99799.88;5004159;28;20291;-50
2022/03/20 09:58:39;;;;;;;48.73;29.93;;;;;;;10.36;69.11;99805.22;4989273;28;20187;-50
2022/03/20 10:01:06;;;;;;;49.03;30.43;;;;;;;9.95;72.77;99798.81;4999663;28;20758;-51
2022/03/20 10:03:33;;;;;;;44.07;27.83;;;;;;;10.08;69.62;99807.34;5008283;28;20223;-49
2022/03/20 10:06:07;;;;;;;42.53;28.87;;;;;;;9.94;71.86;99808.41;5008738;28;20187;-50
2022/03/20 10:08:34;;;;;;;46.53;28.17;;;;;;;10.20;71.22;99805.56;5008647;28;20192;-49
2022/03/20 10:11:14;;;;;;;47.17;28.97;;;;;;;10.41;70.17;99797.88;5008791;28;20211;-51
2022/03/20 10:13:43;;;;;;;48.87;30.20;;;;;;;10.27;70.25;99809.34;5008689;28;20265;-50
2022/03/20 10:16:19;;;;;;;43.93;28.87;;;;;;;10.22;70.98;99803.66;5008754;28;20192;-49
2022/03/20 10:18:46;;;;;;;42.07;27.33;;;;;;;10.19;67.36;99798.69;5008812;28;20266;-48
2022/03/20 10:21:13;;;;;;;47.70;28.90;;;;;;;9.97;70.75;99799.50;5008433;28;20713;-50
2022/03/20 10:23:41;;;;;;;46.73;28.40;;;;;;;10.06;71.20;99800.59;5012397;28;20216;-49
2022/03/20 10:26:10;;;;;;;45.53;28.57;;;;;;;9.83;72.57;99795.38;4994532;28;20228;-48
2022/03/20 10:28:41;;;;;;;48.87;31.70;;;;;;;9.87;71.92;99794.19;4992974;28;20201;-48
2022/03/20 10:31:10;;;;;;;47.87;29.27;;;;;;;9.87;73.08;99787.19;4992714;28;20208;-48
2022/03/20 10:33:40;;;;;;;50.80;29.03;;;;;;;9.94;72.59;99794.53;4993150;28;20197;-48
2022/03/20 10:36:15;;;;;;;57.43;30.37;;;;;;;10.01;70.88;99803.56;4991361;28;20192;-49
2022/03/20 10:38:43;;;;;;;42.37;26.87;;;;;;;10.06;71.85;99798.00;4992724;28;20278;-49
2022/03/20 10:41:21;;;;;;;42.83;27.37;;;;;;;10.30;70.02;99800.47;4992057;28;20235;-49
2022/03/20 10:43:50;;;;;;;41.67;25.57;;;;;;;10.42;67.50;99801.31;4993120;28;20546;-48
2022/03/20 10:46:22;;;;;;;43.43;27.83;;;;;;;10.32;69.85;99803.78;4991083;28;20195;-52
2022/03/20 10:48:52;;;;;;;40.20;26.43;;;;;;;10.30;68.09;99800.47;4993293;28;20655;-50
2022/03/20 10:51:38;;;;;;;41.87;26.40;;;;;;;10.26;69.01;99799.84;4990363;28;20766;-49
2022/03/20 10:54:07;;;;;;;43.97;26.00;;;;;;;10.21;70.94;99809.00;4992633;28;20713;-48
2022/03/20 10:56:34;;;;;;;42.70;26.73;;;;;;;10.41;70.06;99803.09;4992734;28;20202;-48
2022/03/20 10:59:12;;;;;;;38.67;25.00;;;;;;;10.59;69.34;99794.75;4992701;28;20196;-48
2022/03/20 11:01:40;;;;;;;37.67;24.60;;;;;;;10.71;69.39;99798.16;4999620;28;20230;-49
2022/03/20 11:04:09;;;;;;;41.10;24.43;;;;;;;10.96;66.75;99797.00;5011177;28;20666;-48
2022/03/20 11:06:38;;;;;;;40.47;24.57;;;;;;;11.07;66.22;99799.59;5012188;28;20191;-49
2022/03/20 11:09:06;;;;;;;39.40;24.87;;;;;;;11.10;67.70;99798.53;5012369;28;20210;-51
2022/03/20 11:11:35;;;;;;;42.23;24.53;;;;;;;11.15;66.18;99800.75;5011965;28;20196;-49
2022/03/20 11:14:04;;;;;;;39.53;23.53;;;;;;;11.14;65.12;99796.47;5011224;28;20194;-50
2022/03/20 11:16:36;;;;;;;35.73;24.20;;;;;;;11.39;63.94;99804.91;5012299;28;20267;-48
2022/03/20 11:19:06;;;;;;;37.00;22.93;;;;;;;11.46;64.22;99808.69;5010641;28;20610;-52
2022/03/20 11:21:37;;;;;;;37.90;22.93;;;;;;;11.59;64.42;99801.47;5011313;28;20208;-48
2022/03/20 11:24:05;;;;;;;37.70;22.57;;;;;;;11.61;64.57;99803.94;5010263;28;20651;-51
2022/03/20 11:26:33;;;;;;;39.27;23.07;;;;;;;11.67;63.95;99801.63;4992218;28;20272;-50
2022/03/20 11:29:01;;;;;;;40.77;23.00;;;;;;;11.71;62.61;99802.22;4991505;28;20185;-49
2022/03/20 11:31:35;;;;;;;31.23;21.27;;;;;;;11.81;61.40;99802.25;4991721;28;20252;-49
2022/03/20 11:34:03;;;;;;;34.43;22.43;;;;;;;12.05;63.64;99806.41;4990539;28;20189;-50
2022/03/20 11:36:30;;;;;;;35.47;21.10;;;;;;;11.99;60.18;99796.44;4991764;28;20191;-51
2022/03/20 11:39:18;;;;;;;35.47;21.60;;;;;;;12.12;61.51;99789.22;4991722;28;20190;-52
2022/03/20 11:41:46;;;;;;;32.13;20.50;;;;;;;12.25;59.77;99789.81;4986564;28;20312;-51
2022/03/20 11:44:20;;;;;;;34.77;20.53;;;;;;;12.47;60.01;99787.94;4991584;28;20181;-53
2022/03/20 11:47:21;;;;;;;28.93;18.10;;;;;;;12.56;56.75;99778.44;4991584;28;20182;-52
2022/03/20 11:50:14;;;;;;;28.60;17.40;;;;;;;12.77;54.90;99773.09;4991366;28;20845;-51
2022/03/20 11:52:45;;;;;;;27.20;16.87;;;;;;;12.85;56.03;99775.84;4991709;28;20194;-53
2022/03/20 11:55:30;;;;;;;28.27;17.30;;;;;;;13.11;53.63;99771.88;4991015;28;20182;-52
2022/03/20 11:57:57;;;;;;;26.50;16.83;;;;;;;13.09;53.59;99761.50;4991438;28;20493;-51
2022/03/20 12:00:26;;;;;;;27.70;17.03;;;;;;;13.14;53.87;99761.91;4990895;28;20207;-49
2022/03/20 12:03:25;;;;;;;26.93;17.33;;;;;;;13.38;53.07;99758.03;5000750;28;20666;-49